Time;durP1;ratioP1;P1;durP2;ratioP2;P2;SDS_P1;SDS_P2;PMS_P1;PMS_P2;Temp;Humidity;BMP_temperature;BMP_pressure;BME280_temperature;BME280_humidity;BME280_pressure;Samples;Min_cycle;Max_cycle;Signal;HPM_P1;HPM_P2
2021/10/14 00:00:54;;;;;;;7.38;5.47;;;;;;;7.07;77.21;99987.41;2618232;54;20065;-64
2021/10/14 00:03:24;;;;;;;8.27;4.95;;;;;;;7.04;77.02;99985.88;2617517;54;20035;-64
2021/10/14 00:05:54;;;;;;;8.07;4.88;;;;;;;7.03;77.07;99993.91;2617925;54;20037;-64
2021/10/14 00:08:23;;;;;;;11.65;5.93;;;;;;;6.95;76.35;99981.47;2618010;54;20106;-65
2021/10/14 00:10:53;;;;;;;7.28;4.90;;;;;;;6.91;76.41;99978.28;2618185;54;20065;-64
2021/10/14 00:13:22;;;;;;;9.68;6.22;;;;;;;6.89;76.77;99977.59;2618106;54;20034;-64
2021/10/14 00:15:54;;;;;;;6.53;4.60;;;;;;;6.90;76.97;99975.81;2617244;47;20074;-64
2021/10/14 00:18:24;;;;;;;7.28;5.32;;;;;;;6.82;76.85;99976.50;2618007;54;20125;-64
2021/10/14 00:20:54;;;;;;;12.25;5.32;;;;;;;6.70;76.75;99969.75;2618227;54;20155;-64
2021/10/14 00:23:24;;;;;;;9.10;5.20;;;;;;;6.62;76.65;99975.69;2617512;47;20027;-64
2021/10/14 00:25:54;;;;;;;5.45;4.82;;;;;;;6.54;77.12;99978.19;2617980;54;20077;-64
2021/10/14 00:28:23;;;;;;;10.35;4.63;;;;;;;6.50;77.51;99982.03;2618079;54;20046;-64
2021/10/14 00:30:55;;;;;;;8.00;4.60;;;;;;;6.52;77.15;99984.53;2618162;54;20058;-64
2021/10/14 00:33:25;;;;;;;6.03;4.63;;;;;;;6.47;77.06;99987.56;2618061;54;20034;-63
2021/10/14 00:35:55;;;;;;;5.35;4.32;;;;;;;6.41;76.80;99991.59;2617922;54;20043;-64
2021/10/14 00:38:24;;;;;;;7.18;4.82;;;;;;;6.36;77.07;99999.00;2618840;54;20030;-65
2021/10/14 00:40:54;;;;;;;5.63;4.72;;;;;;;6.27;77.29;99989.34;2623304;54;20557;-64
2021/10/14 00:43:24;;;;;;;6.65;4.25;;;;;;;6.23;76.85;100001.06;2622418;54;20081;-65
2021/10/14 00:45:56;;;;;;;6.05;4.65;;;;;;;6.16;77.31;100002.56;2623623;54;20070;-64
2021/10/14 00:48:25;;;;;;;7.65;4.30;;;;;;;6.17;77.29;100001.63;2623832;54;20042;-72
2021/10/14 00:50:55;;;;;;;7.25;4.60;;;;;;;6.10;77.33;100006.56;2624067;54;20050;-65
2021/10/14 00:53:24;;;;;;;4.68;4.10;;;;;;;6.20;77.86;100004.81;2623741;54;20022;-64
2021/10/14 00:55:54;;;;;;;6.78;4.72;;;;;;;6.31;77.35;99993.34;2622962;54;20054;-65
2021/10/14 00:58:24;;;;;;;4.68;4.00;;;;;;;6.31;76.97;99997.78;2623065;54;20034;-65
2021/10/14 01:00:56;;;;;;;5.25;4.00;;;;;;;6.26;77.28;99987.69;2625589;39;20438;-65
2021/10/14 01:03:25;;;;;;;6.65;3.90;;;;;;;6.32;77.68;99989.75;2623762;54;20043;-64
2021/10/14 01:05:55;;;;;;;5.43;4.05;;;;;;;6.39;76.80;99980.38;2623286;54;20023;-65
2021/10/14 01:08:25;;;;;;;4.28;3.70;;;;;;;6.36;76.87;99988.50;2622388;54;20038;-64
2021/10/14 01:10:54;;;;;;;7.47;3.97;;;;;;;6.36;76.52;99979.81;2620797;39;20573;-68
2021/10/14 01:13:24;;;;;;;5.63;4.57;;;;;;;6.40;76.77;99968.88;2623520;54;20054;-65
2021/10/14 01:15:56;;;;;;;5.45;3.97;;;;;;;6.38;76.36;99977.88;2622750;39;20387;-65
2021/10/14 01:18:25;;;;;;;6.13;4.05;;;;;;;6.29;76.09;99965.59;2622496;31;20470;-65
2021/10/14 01:20:57;;;;;;;5.07;4.18;;;;;;;6.20;76.47;99970.69;2621378;54;20035;-66
2021/10/14 01:23:27;;;;;;;6.22;4.07;;;;;;;6.22;76.49;99970.53;2620214;54;20026;-65
2021/10/14 01:25:57;;;;;;;6.38;4.38;;;;;;;6.30;76.28;99967.22;2618499;39;20453;-65
2021/10/14 01:28:26;;;;;;;6.95;4.75;;;;;;;6.23;75.70;99956.44;2617334;47;20046;-65
2021/10/14 01:30:56;;;;;;;4.88;4.40;;;;;;;6.08;75.96;99953.41;2618210;39;20434;-65
2021/10/14 01:33:32;;;;;;;6.72;4.03;;;;;;;5.96;76.23;99959.72;2617910;54;20069;-65
2021/10/14 01:36:05;;;;;;;5.70;4.28;;;;;;;5.98;76.59;99954.31;2617569;54;20038;-65
2021/10/14 01:38:34;;;;;;;4.63;4.13;;;;;;;6.03;76.35;99947.69;2617816;54;20030;-64
2021/10/14 01:41:04;;;;;;;5.13;4.28;;;;;;;5.92;76.39;99948.66;2618750;31;20539;-63
2021/10/14 01:43:33;;;;;;;5.72;4.05;;;;;;;5.84;76.63;99943.22;2617736;54;20167;-64
2021/10/14 01:46:03;;;;;;;6.10;4.07;;;;;;;5.79;76.41;99941.94;2618017;39;20801;-64
2021/10/14 01:48:33;;;;;;;6.35;4.32;;;;;;;5.72;76.38;99946.91;2617607;54;20038;-64
2021/10/14 01:51:06;;;;;;;4.72;3.63;;;;;;;5.54;76.86;99948.50;2617913;54;20121;-64
2021/10/14 01:53:36;;;;;;;5.10;3.70;;;;;;;5.49;76.83;99946.28;2617405;47;20041;-65
2021/10/14 01:56:06;;;;;;;5.55;3.92;;;;;;;5.56;77.17;99949.22;2618745;54;20053;-64
2021/10/14 01:58:35;;;;;;;5.95;4.50;;;;;;;5.61;77.36;99947.00;2619812;51;20130;-65
2021/10/14 02:01:05;;;;;;;4.80;3.63;;;;;;;5.62;77.36;99943.41;2619743;54;20030;-65
2021/10/14 02:03:35;;;;;;;7.10;4.25;;;;;;;5.60;76.90;99946.19;2619470;54;20132;-66
2021/10/14 02:06:07;;;;;;;8.18;4.22;;;;;;;5.49;76.88;99956.75;2619990;54;20030;-65
2021/10/14 02:08:36;;;;;;;5.05;3.88;;;;;;;5.40;77.30;99954.94;2621905;54;20558;-65
2021/10/14 02:11:06;;;;;;;4.57;3.80;;;;;;;5.38;77.28;99960.28;2619150;54;20059;-65
2021/10/14 02:13:36;;;;;;;3.80;3.30;;;;;;;5.46;77.22;99960.47;2619057;39;20694;-64
2021/10/14 02:16:07;;;;;;;5.28;3.65;;;;;;;5.51;77.06;99970.59;2618034;47;20038;-65
2021/10/14 02:18:36;;;;;;;5.47;3.63;;;;;;;5.56;77.21;99967.56;2618685;54;20100;-64
2021/10/14 02:21:09;;;;;;;5.35;3.50;;;;;;;5.60;77.59;99971.59;2619022;39;20168;-64
2021/10/14 02:23:38;;;;;;;5.63;4.05;;;;;;;5.66;77.59;99965.81;2618684;54;20126;-64
2021/10/14 02:26:08;;;;;;;4.13;3.60;;;;;;;5.72;77.19;99973.16;2618718;54;20030;-64
2021/10/14 02:28:37;;;;;;;4.13;3.45;;;;;;;5.76;76.87;99969.31;2619924;54;20114;-64
2021/10/14 02:31:07;;;;;;;7.20;4.18;;;;;;;5.86;77.54;99969.31;2621166;51;20034;-64
2021/10/14 02:33:36;;;;;;;5.38;3.80;;;;;;;5.99;77.12;99961.22;2621451;54;20098;-63
2021/10/14 02:36:09;;;;;;;4.30;3.80;;;;;;;6.05;77.02;99961.53;2620028;54;20082;-64
2021/10/14 02:38:38;;;;;;;6.38;4.07;;;;;;;6.07;76.19;99959.59;2620829;54;20082;-64
2021/10/14 02:41:08;;;;;;;6.70;3.42;;;;;;;6.02;76.06;99953.09;2620472;31;20518;-63
2021/10/14 02:43:38;;;;;;;4.47;3.53;;;;;;;6.03;76.48;99944.25;2619925;39;20426;-64
2021/10/14 02:46:07;;;;;;;4.43;3.67;;;;;;;5.97;76.06;99944.81;2618746;54;20046;-64
2021/10/14 02:48:37;;;;;;;4.15;3.35;;;;;;;6.03;76.14;99936.38;2618588;54;20034;-65
2021/10/14 02:51:09;;;;;;;6.18;4.00;;;;;;;6.12;76.28;99943.44;2618566;54;20110;-64
2021/10/14 02:53:39;;;;;;;4.13;3.60;;;;;;;6.09;76.07;99939.28;2618801;54;20042;-64
2021/10/14 02:56:08;;;;;;;4.45;3.28;;;;;;;6.08;75.80;99935.03;2618683;39;20503;-64
2021/10/14 02:58:38;;;;;;;4.78;3.33;;;;;;;6.04;75.88;99935.41;2618499;54;20046;-64
2021/10/14 03:01:07;;;;;;;5.43;3.70;;;;;;;5.95;75.32;99934.41;2618371;54;20042;-64
2021/10/14 03:03:37;;;;;;;4.60;3.35;;;;;;;5.82;75.70;99936.44;2618618;54;20045;-64
2021/10/14 03:06:09;;;;;;;5.88;3.70;;;;;;;5.71;75.80;99938.22;2618288;54;20030;-64
2021/10/14 03:08:39;;;;;;;6.65;3.63;;;;;;;5.60;75.75;99940.09;2619091;39;20709;-64
2021/10/14 03:11:09;;;;;;;5.72;3.75;;;;;;;5.57;76.36;99935.94;2618449;54;20038;-64
2021/10/14 03:13:38;;;;;;;7.22;3.58;;;;;;;5.62;76.62;99940.78;2618941;39;20403;-64
2021/10/14 03:16:08;;;;;;;4.43;3.63;;;;;;;5.68;76.58;99933.22;2622200;54;20090;-64
2021/10/14 03:18:37;;;;;;;4.25;3.80;;;;;;;5.71;76.34;99940.84;2620292;54;20126;-64
2021/10/14 03:21:10;;;;;;;4.85;3.90;;;;;;;5.70;76.51;99941.78;2619270;31;20538;-64
2021/10/14 03:23:39;;;;;;;4.82;3.80;;;;;;;5.71;76.57;99945.22;2618044;54;20029;-64
2021/10/14 03:26:09;;;;;;;6.10;3.92;;;;;;;5.78;76.78;99941.13;2617870;54;20037;-64
2021/10/14 03:28:39;;;;;;;6.28;4.28;;;;;;;5.76;75.59;99940.44;2617579;52;20033;-64
2021/10/14 03:31:09;;;;;;;6.57;4.00;;;;;;;5.67;76.09;99946.47;2618201;39;20403;-64
2021/10/14 03:33:39;;;;;;;4.25;3.85;;;;;;;5.68;76.54;99937.66;2618252;47;20061;-64
2021/10/14 03:36:11;;;;;;;4.75;3.33;;;;;;;5.65;76.00;99938.75;2618475;54;20041;-64
2021/10/14 03:38:41;;;;;;;11.10;7.40;;;;;;;5.67;76.77;99943.84;2618125;54;20069;-64
2021/10/14 03:41:10;;;;;;;6.22;3.95;;;;;;;5.61;76.50;99945.22;2618327;54;20050;-65
2021/10/14 03:43:40;;;;;;;6.28;4.00;;;;;;;5.61;76.67;99954.88;2618420;54;20742;-64
2021/10/14 03:46:10;;;;;;;4.20;3.70;;;;;;;5.63;76.40;99955.56;2617985;54;20034;-64
2021/10/14 03:48:39;;;;;;;6.43;3.97;;;;;;;5.64;76.75;99952.81;2617692;46;20023;-64
2021/10/14 03:51:12;;;;;;;5.28;4.47;;;;;;;5.67;76.94;99955.19;2618228;54;20045;-64
2021/10/14 03:53:41;;;;;;;7.10;4.15;;;;;;;5.74;77.13;99958.09;2617914;54;20038;-65
2021/10/14 03:56:11;;;;;;;5.03;3.63;;;;;;;5.85;77.17;99954.53;2617395;47;20080;-65
2021/10/14 03:58:40;;;;;;;5.75;4.55;;;;;;;5.97;76.94;99957.94;2617939;54;20027;-65
2021/10/14 04:01:10;;;;;;;5.35;4.35;;;;;;;6.00;76.69;99958.50;2617681;47;20026;-65
2021/10/14 04:03:39;;;;;;;5.68;4.53;;;;;;;6.04;76.51;99951.16;2618176;54;20059;-65
2021/10/14 04:06:12;;;;;;;6.28;4.88;;;;;;;6.08;76.59;99949.91;2617654;54;20042;-64
2021/10/14 04:08:42;;;;;;;4.55;4.10;;;;;;;6.12;76.67;99946.06;2618511;54;20030;-64
2021/10/14 04:11:11;;;;;;;4.43;3.58;;;;;;;6.16;76.45;99953.53;2617474;47;20030;-64
2021/10/14 04:13:42;;;;;;;4.80;3.58;;;;;;;6.24;76.16;99955.47;2618300;54;20042;-65
2021/10/14 04:16:12;;;;;;;4.72;3.72;;;;;;;6.25;76.04;99954.53;2617927;54;20038;-64
2021/10/14 04:18:41;;;;;;;5.93;4.20;;;;;;;6.25;75.31;99949.25;2617323;54;20034;-65
2021/10/14 04:21:13;;;;;;;6.93;3.90;;;;;;;6.24;75.23;99957.25;2618216;54;20040;-65
2021/10/14 04:23:44;;;;;;;5.72;3.95;;;;;;;6.16;75.16;99957.94;2618221;54;20051;-65
2021/10/14 04:26:14;;;;;;;7.20;4.63;;;;;;;6.11;75.39;99965.41;2617969;54;20042;-64
2021/10/14 04:28:43;;;;;;;4.22;3.72;;;;;;;6.12;75.80;99960.03;2617677;54;20046;-65
2021/10/14 04:31:13;;;;;;;5.03;4.35;;;;;;;6.13;75.63;99960.84;2618023;54;20110;-65
2021/10/14 04:33:43;;;;;;;7.70;4.20;;;;;;;6.13;75.99;99963.47;2618169;54;20030;-65
2021/10/14 04:36:15;;;;;;;4.90;4.10;;;;;;;6.15;76.27;99953.66;2617946;54;20063;-65
2021/10/14 04:38:45;;;;;;;5.25;4.35;;;;;;;6.25;76.18;99951.91;2617706;54;20022;-64
2021/10/14 04:41:14;;;;;;;6.50;4.22;;;;;;;6.31;76.04;99953.13;2618345;54;20039;-64
2021/10/14 04:43:44;;;;;;;7.32;4.65;;;;;;;6.35;75.58;99962.41;2618172;54;20085;-64
2021/10/14 04:46:14;;;;;;;6.97;5.35;;;;;;;6.32;75.35;99963.47;2617700;54;20022;-64
2021/10/14 04:48:43;;;;;;;6.55;4.30;;;;;;;6.33;75.77;99959.91;2617256;47;20030;-64
2021/10/14 04:51:15;;;;;;;8.23;4.97;;;;;;;6.47;75.80;99965.72;2618006;54;20090;-64
2021/10/14 04:53:45;;;;;;;9.38;6.28;;;;;;;6.61;75.93;99957.41;2617485;54;20051;-64
2021/10/14 04:56:15;;;;;;;7.75;4.78;;;;;;;6.67;75.78;99959.50;2617602;54;20030;-65
2021/10/14 04:58:44;;;;;;;6.75;5.03;;;;;;;6.72;75.38;99953.81;2617982;54;20101;-64
2021/10/14 05:01:14;;;;;;;8.93;5.20;;;;;;;6.71;75.36;99958.25;2617820;54;20595;-64
2021/10/14 05:03:43;;;;;;;5.55;4.50;;;;;;;6.74;75.41;99957.97;2618668;39;20640;-64
2021/10/14 05:06:16;;;;;;;6.72;4.57;;;;;;;6.77;75.50;99959.47;2617995;54;20062;-64
2021/10/14 05:08:45;;;;;;;5.78;4.90;;;;;;;6.77;75.23;99954.22;2618076;54;20154;-65
2021/10/14 05:11:16;;;;;;;7.90;5.45;;;;;;;6.78;75.55;99955.91;2617692;47;20057;-64
2021/10/14 05:13:45;;;;;;;8.07;5.65;;;;;;;6.78;75.55;99955.91;2617526;47;20107;-64
2021/10/14 05:16:15;;;;;;;8.48;6.03;;;;;;;6.76;75.79;99953.41;2617907;54;20030;-64
2021/10/14 05:18:44;;;;;;;9.50;5.60;;;;;;;6.82;75.64;99952.03;2617855;54;20030;-64
2021/10/14 05:21:16;;;;;;;6.85;5.18;;;;;;;6.83;75.89;99949.25;2618156;54;20026;-64
2021/10/14 05:23:46;;;;;;;6.90;5.18;;;;;;;6.88;75.84;99951.44;2618264;54;20030;-64
2021/10/14 05:26:16;;;;;;;7.30;5.57;;;;;;;6.89;75.74;99947.84;2617936;54;20042;-64
2021/10/14 05:28:45;;;;;;;6.93;5.45;;;;;;;6.87;75.96;99948.00;2618074;54;20622;-65
2021/10/14 05:31:15;;;;;;;7.95;5.43;;;;;;;6.90;75.57;99954.78;2618635;54;20062;-65
2021/10/14 05:33:44;;;;;;;6.57;4.82;;;;;;;6.93;75.79;99955.31;2618897;54;20037;-64
2021/10/14 05:36:17;;;;;;;9.25;5.50;;;;;;;6.94;75.44;99954.34;2618080;54;20030;-64
2021/10/14 05:38:47;;;;;;;11.65;5.82;;;;;;;6.90;75.76;99960.03;2618686;54;20610;-65
2021/10/14 05:41:16;;;;;;;9.77;5.45;;;;;;;6.91;75.64;99957.25;2618869;54;20666;-65
2021/10/14 05:43:46;;;;;;;7.47;6.22;;;;;;;6.96;75.69;99962.09;2618687;54;20562;-67
2021/10/14 05:46:16;;;;;;;8.50;5.68;;;;;;;7.02;75.31;99955.44;2618679;54;20601;-64
2021/10/14 05:48:45;;;;;;;8.23;5.85;;;;;;;6.95;75.79;99950.75;2618233;54;20026;-65
2021/10/14 05:51:17;;;;;;;13.40;7.78;;;;;;;6.92;75.43;99955.47;2618685;54;20031;-64
2021/10/14 05:53:47;;;;;;;10.25;7.10;;;;;;;6.87;75.42;99958.50;2618585;54;20070;-64
2021/10/14 05:56:16;;;;;;;8.35;6.78;;;;;;;6.80;75.80;99960.03;2618603;54;20095;-64
2021/10/14 05:58:46;;;;;;;8.23;6.53;;;;;;;6.80;76.09;99959.22;2618635;54;20034;-64
2021/10/14 06:01:16;;;;;;;10.75;6.70;;;;;;;6.81;76.39;99955.59;2618799;54;20038;-64
2021/10/14 06:03:46;;;;;;;10.18;6.30;;;;;;;6.81;76.20;99958.22;2619016;54;20025;-64
2021/10/14 06:06:18;;;;;;;7.82;5.82;;;;;;;6.86;76.50;99954.22;2618675;54;20030;-64
2021/10/14 06:08:47;;;;;;;9.23;7.35;;;;;;;6.95;76.21;99952.56;2618613;54;20035;-64
2021/10/14 06:11:18;;;;;;;10.13;7.30;;;;;;;7.00;76.28;99960.00;2618823;54;20594;-65
2021/10/14 06:13:47;;;;;;;14.00;8.98;;;;;;;7.03;76.43;99952.69;2618947;54;20038;-65
2021/10/14 06:16:17;;;;;;;11.23;8.73;;;;;;;7.09;76.11;99965.25;2619000;54;20638;-65
2021/10/14 06:18:46;;;;;;;13.77;8.00;;;;;;;7.16;76.42;99963.72;2621193;54;20901;-65
2021/10/14 06:21:18;;;;;;;12.98;8.63;;;;;;;7.19;75.86;99960.81;2619191;54;20538;-65
2021/10/14 06:23:48;;;;;;;11.70;7.75;;;;;;;7.24;75.78;99968.25;2619226;54;20027;-65
2021/10/14 06:26:17;;;;;;;10.00;7.82;;;;;;;7.24;75.55;99959.53;2620945;54;20593;-66
2021/10/14 06:28:47;;;;;;;10.18;7.38;;;;;;;7.26;75.54;99963.69;2622171;54;20055;-68
2021/10/14 06:31:16;;;;;;;11.90;7.88;;;;;;;7.30;76.01;99972.13;2622124;54;20137;-65
2021/10/14 06:33:46;;;;;;;10.25;6.88;;;;;;;7.38;76.15;99961.69;2621480;54;20070;-65
2021/10/14 06:36:18;;;;;;;12.88;8.40;;;;;;;7.44;75.96;99961.97;2620486;39;20458;-65
2021/10/14 06:38:48;;;;;;;11.63;6.82;;;;;;;7.48;75.58;99959.88;2619303;54;20263;-64
2021/10/14 06:41:17;;;;;;;14.95;6.82;;;;;;;7.46;75.75;99959.19;2619276;54;20115;-65
2021/10/14 06:43:47;;;;;;;9.75;7.15;;;;;;;7.56;75.80;99959.16;2619521;54;20042;-65
2021/10/14 06:46:16;;;;;;;12.82;6.88;;;;;;;7.58;75.53;99965.09;2620212;54;20048;-65
2021/10/14 06:48:46;;;;;;;9.50;7.57;;;;;;;7.59;75.66;99953.59;2620478;54;20038;-65
2021/10/14 06:51:15;;;;;;;11.65;8.02;;;;;;;7.67;75.23;99953.69;2618551;54;20090;-65
2021/10/14 06:53:47;;;;;;;13.23;7.57;;;;;;;7.73;75.12;99947.84;2618497;54;20030;-64
2021/10/14 06:56:17;;;;;;;11.63;8.13;;;;;;;7.81;75.23;99947.97;2619339;31;20532;-64
2021/10/14 06:58:46;;;;;;;13.52;8.35;;;;;;;7.86;75.05;99950.97;2618633;54;20057;-64
2021/10/14 07:01:16;;;;;;;11.57;8.98;;;;;;;7.90;75.05;99956.78;2618352;54;20582;-64
2021/10/14 07:03:46;;;;;;;10.77;9.40;;;;;;;7.88;74.96;99953.47;2618821;54;20534;-64
2021/10/14 07:06:16;;;;;;;10.45;8.07;;;;;;;7.91;75.03;99946.09;2618373;54;20091;-64
2021/10/14 07:08:48;;;;;;;12.95;8.45;;;;;;;7.92;74.87;99954.84;2618415;54;20138;-64
2021/10/14 07:11:18;;;;;;;12.82;8.73;;;;;;;7.94;75.11;99953.69;2617701;47;20053;-64
2021/10/14 07:13:47;;;;;;;11.80;8.40;;;;;;;8.00;74.72;99951.44;2618354;54;20030;-64
2021/10/14 07:16:17;;;;;;;16.85;10.15;;;;;;;8.07;75.01;99949.88;2618251;54;20066;-65
2021/10/14 07:18:46;;;;;;;15.30;9.45;;;;;;;8.15;74.77;99952.59;2618463;54;20034;-64
2021/10/14 07:21:16;;;;;;;12.32;8.93;;;;;;;8.25;74.67;99949.91;2618508;54;20736;-64
2021/10/14 07:23:48;;;;;;;18.55;9.88;;;;;;;8.30;74.70;99951.13;2618479;54;20530;-65
2021/10/14 07:26:17;;;;;;;21.30;15.38;;;;;;;8.38;74.55;99950.41;2618412;54;20082;-65
2021/10/14 07:28:47;;;;;;;13.63;9.73;;;;;;;8.48;74.29;99958.22;2617555;47;20038;-65
2021/10/14 07:31:16;;;;;;;12.45;8.75;;;;;;;8.52;73.83;99949.03;2618329;54;20026;-63
2021/10/14 07:33:46;;;;;;;15.65;12.05;;;;;;;8.61;73.67;99948.13;2618457;54;20182;-64
2021/10/14 07:36:16;;;;;;;15.65;10.18;;;;;;;8.64;73.54;99953.09;2617601;47;20038;-64
2021/10/14 07:38:48;;;;;;;13.68;8.70;;;;;;;8.72;73.39;99953.16;2618261;54;20042;-64
2021/10/14 07:41:18;;;;;;;14.38;8.93;;;;;;;8.73;73.36;99952.16;2617913;54;20065;-64
2021/10/14 07:43:47;;;;;;;13.65;9.02;;;;;;;8.81;73.76;99946.97;2618283;54;20059;-64
2021/10/14 07:46:17;;;;;;;15.30;9.68;;;;;;;8.87;73.16;99953.44;2617426;54;20548;-65
2021/10/14 07:48:47;;;;;;;13.43;9.02;;;;;;;8.98;73.14;99955.00;2617610;54;20031;-65
2021/10/14 07:51:16;;;;;;;11.60;8.40;;;;;;;9.08;73.43;99953.09;2618125;54;20026;-65
2021/10/14 07:53:49;;;;;;;11.88;9.48;;;;;;;9.17;73.03;99949.53;2617641;47;20039;-65
2021/10/14 07:56:18;;;;;;;10.05;8.27;;;;;;;9.12;72.93;99955.28;2618132;54;20038;-65
2021/10/14 07:58:49;;;;;;;11.73;9.10;;;;;;;9.22;72.95;99951.69;2618279;54;20037;-65
2021/10/14 08:01:19;;;;;;;15.10;8.98;;;;;;;9.32;72.57;99952.44;2618133;54;20014;-65
2021/10/14 08:03:49;;;;;;;15.65;11.15;;;;;;;9.44;73.11;99951.16;2617586;47;20057;-65
2021/10/14 08:06:19;;;;;;;15.68;10.15;;;;;;;9.57;72.61;99961.28;2618218;54;20102;-65
2021/10/14 08:08:51;;;;;;;11.57;9.73;;;;;;;9.68;72.39;99956.56;2620450;54;20033;-65
2021/10/14 08:11:21;;;;;;;22.17;15.18;;;;;;;9.79;71.72;99949.34;2622896;54;20027;-65
2021/10/14 08:13:50;;;;;;;13.32;10.18;;;;;;;9.78;71.47;99953.78;2622440;54;20064;-65
2021/10/14 08:16:20;;;;;;;12.18;9.48;;;;;;;9.84;71.82;99950.53;2622229;54;20402;-65
2021/10/14 08:18:50;;;;;;;17.15;9.52;;;;;;;9.86;71.42;99942.44;2622478;54;20031;-65
2021/10/14 08:21:20;;;;;;;16.27;9.93;;;;;;;9.97;71.56;99949.25;2622749;54;20049;-65
2021/10/14 08:23:52;;;;;;;14.32;9.90;;;;;;;10.04;71.77;99945.81;2622418;54;20022;-65
2021/10/14 08:26:22;;;;;;;18.65;9.88;;;;;;;10.11;71.63;99945.97;2622678;54;20030;-64
2021/10/14 08:28:51;;;;;;;14.10;9.60;;;;;;;10.23;71.39;99946.50;2622445;54;20022;-64
2021/10/14 08:31:21;;;;;;;17.48;10.10;;;;;;;10.29;71.60;99944.06;2622082;54;20034;-64
2021/10/14 08:33:51;;;;;;;12.45;9.35;;;;;;;10.38;71.27;99937.78;2623330;54;20058;-64
2021/10/14 08:36:20;;;;;;;12.85;9.50;;;;;;;10.50;70.95;99940.13;2623471;54;20785;-64
2021/10/14 08:38:52;;;;;;;18.90;10.38;;;;;;;10.62;70.97;99944.91;2622533;54;20542;-65
2021/10/14 08:41:22;;;;;;;14.93;9.73;;;;;;;10.71;70.51;99951.03;2622942;54;20035;-64
2021/10/14 08:43:55;;;;;;;13.98;10.82;;;;;;;10.82;70.58;99941.94;2622722;54;20023;-64
2021/10/14 08:46:25;;;;;;;17.60;9.50;;;;;;;10.86;69.68;99943.28;2622463;54;20042;-64
2021/10/14 08:48:55;;;;;;;14.68;10.25;;;;;;;10.99;69.86;99943.59;2622848;54;20022;-64
2021/10/14 08:51:24;;;;;;;15.35;10.43;;;;;;;11.05;69.46;99939.44;2622799;54;20050;-65
2021/10/14 08:53:56;;;;;;;13.98;9.48;;;;;;;11.14;69.83;99938.41;2622547;54;20037;-64
2021/10/14 08:56:28;;;;;;;16.40;10.43;;;;;;;11.27;69.46;99943.22;2622730;54;20543;-64
2021/10/14 08:58:58;;;;;;;20.92;12.68;;;;;;;11.37;69.26;99942.00;2623739;54;20027;-64
2021/10/14 09:01:27;;;;;;;15.88;11.18;;;;;;;11.43;68.77;99934.38;2621448;39;20493;-67
2021/10/14 09:03:58;;;;;;;21.33;12.10;;;;;;;11.55;68.56;99936.50;2623030;54;20031;-67
2021/10/14 09:06:27;;;;;;;19.13;11.73;;;;;;;11.70;68.53;99941.91;2623920;54;20034;-67
2021/10/14 09:08:59;;;;;;;16.30;10.77;;;;;;;11.87;68.00;99935.53;2624381;54;20023;-67
2021/10/14 09:11:30;;;;;;;16.58;10.68;;;;;;;11.98;67.43;99941.47;2622778;54;20026;-67
2021/10/14 09:14:02;;;;;;;17.13;10.60;;;;;;;12.01;67.66;99936.66;2622770;54;20565;-67
2021/10/14 09:16:34;;;;;;;15.40;10.80;;;;;;;12.06;67.17;99933.47;2622839;54;20078;-68
2021/10/14 09:19:16;;;;;;;19.38;10.70;;;;;;;11.98;67.28;99931.69;2622581;47;20038;-67
2021/10/14 09:21:48;;;;;;;15.63;11.30;;;;;;;12.04;67.38;99930.16;2624169;54;20023;-66
2021/10/14 09:24:37;;;;;;;15.60;10.35;;;;;;;11.97;67.41;99937.19;2623525;54;20030;-67
2021/10/14 09:27:08;;;;;;;16.70;10.10;;;;;;;11.87;67.23;99927.59;2623469;54;20581;-67
2021/10/14 09:29:39;;;;;;;15.32;10.50;;;;;;;11.99;67.83;99928.03;2623959;54;20046;-66
2021/10/14 09:32:14;;;;;;;18.67;10.82;;;;;;;12.17;67.18;99933.09;2623798;54;20018;-66
2021/10/14 09:34:51;;;;;;;17.02;10.55;;;;;;;12.22;66.81;99925.44;2621655;54;20014;-66
2021/10/14 09:37:34;;;;;;;14.00;9.60;;;;;;;12.31;67.02;99929.66;2620022;54;20023;-66
2021/10/14 09:40:09;;;;;;;15.57;9.83;;;;;;;12.38;66.91;99932.44;2620286;54;20141;-67
2021/10/14 09:42:44;;;;;;;18.00;10.05;;;;;;;12.45;67.03;99930.75;2623492;54;20062;-66
2021/10/14 09:45:26;;;;;;;20.23;11.35;;;;;;;12.48;66.49;99927.72;2623343;54;20070;-67
2021/10/14 09:48:11;;;;;;;24.50;10.27;;;;;;;12.51;66.87;99929.19;2622907;54;20518;-67
2021/10/14 09:50:44;;;;;;;16.80;9.45;;;;;;;12.57;66.97;99933.78;2621650;54;20026;-68
2021/10/14 09:53:15;;;;;;;14.95;10.18;;;;;;;12.65;66.30;99939.03;2623437;39;20441;-67
2021/10/14 09:55:49;;;;;;;19.98;9.95;;;;;;;12.68;66.64;99929.88;2622131;47;20038;-67
2021/10/14 09:58:19;;;;;;;;;;;;;;;12.72;66.73;99928.53;2623378;54;20086;-67
2021/10/14 10:00:49;;;;;;;17.00;10.48;;;;;;;12.75;66.06;99922.88;2623045;54;19943;-67
2021/10/14 10:03:21;;;;;;;11.73;8.68;;;;;;;12.86;66.12;99920.63;2623745;54;20034;-69
2021/10/14 10:05:52;;;;;;;17.98;9.65;;;;;;;12.84;65.22;99914.66;2622878;54;20026;-68
2021/10/14 10:08:30;;;;;;;17.48;10.00;;;;;;;12.87;65.24;99916.13;2623459;54;20038;-71
2021/10/14 10:11:07;;;;;;;20.77;10.48;;;;;;;13.01;65.09;99915.31;2623793;54;20030;-68
2021/10/14 10:13:40;;;;;;;21.25;9.52;;;;;;;12.99;64.97;99906.72;2623450;54;20026;-68
2021/10/14 10:16:17;;;;;;;15.75;9.23;;;;;;;13.05;64.85;99910.47;2623249;31;20502;-68
2021/10/14 10:18:47;;;;;;;14.68;8.50;;;;;;;13.13;64.30;99903.25;2623336;54;20600;-68
2021/10/14 10:21:42;;;;;;;17.77;8.65;;;;;;;13.21;62.90;99904.16;2622675;54;20102;-67
2021/10/14 10:24:30;;;;;;;16.17;7.47;;;;;;;13.22;62.56;99898.66;2623201;47;20538;-68
2021/10/14 10:27:09;;;;;;;13.68;7.60;;;;;;;13.31;62.71;99900.28;2622158;47;20081;-68
2021/10/14 10:29:44;;;;;;;15.75;7.22;;;;;;;13.41;61.76;99901.81;2621929;46;20027;-67
2021/10/14 10:32:26;;;;;;;11.35;6.30;;;;;;;13.60;61.22;99890.63;2622615;54;20022;-67
2021/10/14 10:35:08;;;;;;;11.00;6.32;;;;;;;13.67;60.32;99891.53;2622722;54;20023;-68
2021/10/14 10:37:43;;;;;;;13.95;5.50;;;;;;;13.74;59.50;99895.09;2622502;47;20091;-68
2021/10/14 10:40:23;;;;;;;9.98;5.70;;;;;;;13.79;58.85;99895.34;2622668;54;20078;-67
2021/10/14 10:43:00;;;;;;;12.63;5.70;;;;;;;13.79;58.40;99889.22;2622666;54;20038;-68
2021/10/14 10:45:31;;;;;;;8.65;5.32;;;;;;;13.89;58.58;99889.75;2621046;46;20054;-67
2021/10/14 10:48:05;;;;;;;15.88;6.35;;;;;;;13.95;58.85;99878.34;2621995;54;20546;-68
2021/10/14 10:50:52;;;;;;;12.82;6.35;;;;;;;14.08;58.56;99881.16;2622281;54;20041;-68
2021/10/14 10:53:24;;;;;;;11.95;5.03;;;;;;;14.10;56.83;99886.28;2623230;54;20034;-66
2021/10/14 10:55:56;;;;;;;8.77;4.60;;;;;;;14.03;56.19;99885.38;2620604;54;20027;-67
2021/10/14 10:58:47;;;;;;;10.45;4.85;;;;;;;13.98;56.14;99871.84;2622778;54;20045;-68
2021/10/14 11:01:19;;;;;;;12.50;5.88;;;;;;;13.93;56.25;99877.72;2622595;51;20050;-67
2021/10/14 11:03:57;;;;;;;8.40;4.93;;;;;;;13.98;56.26;99869.19;2622427;54;20042;-66
2021/10/14 11:06:28;;;;;;;15.13;6.57;;;;;;;14.07;55.49;99863.56;2622174;54;20038;-68
2021/10/14 11:09:02;;;;;;;10.70;4.90;;;;;;;14.12;55.85;99865.63;2623116;47;20034;-67
2021/10/14 11:11:31;;;;;;;;;;;;;;;14.22;56.43;99858.19;2624089;54;20031;-67
2021/10/14 11:14:04;;;;;;;10.45;5.70;;;;;;;14.25;56.42;99863.13;2623541;54;19951;-67
2021/10/14 11:16:35;;;;;;;14.15;6.18;;;;;;;14.37;56.00;99863.44;2623415;54;20522;-66
2021/10/14 11:19:06;;;;;;;15.02;8.25;;;;;;;14.48;56.17;99860.25;2623508;31;20479;-69
2021/10/14 11:21:42;;;;;;;8.85;6.40;;;;;;;14.46;55.55;99856.16;2621597;47;20039;-68
2021/10/14 11:24:12;;;;;;;12.13;6.88;;;;;;;14.41;56.17;99853.22;2622718;39;20429;-67
2021/10/14 11:26:42;;;;;;;15.27;7.32;;;;;;;14.48;55.86;99854.94;2622380;54;20038;-68
2021/10/14 11:29:16;;;;;;;9.15;6.40;;;;;;;14.44;54.83;99842.19;2622377;46;20046;-68
2021/10/14 11:31:51;;;;;;;9.57;5.97;;;;;;;14.44;55.27;99843.03;2621731;54;20022;-69
2021/10/14 11:34:23;;;;;;;9.68;5.15;;;;;;;14.50;53.87;99847.63;2622158;54;20613;-69
2021/10/14 11:36:55;;;;;;;15.73;6.25;;;;;;;14.48;54.03;99841.63;2621569;54;20038;-68
2021/10/14 11:39:26;;;;;;;10.02;5.57;;;;;;;14.51;54.49;99833.28;2621281;47;20042;-67
2021/10/14 11:41:58;;;;;;;12.05;6.38;;;;;;;14.64;54.54;99834.41;2621507;54;20050;-67
2021/10/14 11:44:32;;;;;;;14.82;7.10;;;;;;;14.77;55.02;99829.16;2620819;46;20046;-68
2021/10/14 11:47:05;;;;;;;14.05;9.57;;;;;;;14.82;55.87;99824.94;2620854;54;20038;-68
2021/10/14 11:49:35;;;;;;;16.50;10.52;;;;;;;14.86;56.00;99826.19;2621371;54;20038;-67
2021/10/14 11:52:06;;;;;;;13.15;7.72;;;;;;;14.99;55.96;99825.44;2621815;54;20558;-68